Time;durP1;ratioP1;P1;durP2;ratioP2;P2;SDS_P1;SDS_P2;PMS_P1;PMS_P2;Temp;Humidity;BMP_temperature;BMP_pressure;BME280_temperature;BME280_humidity;BME280_pressure;Samples;Min_cycle;Max_cycle;Signal;HPM_P1;HPM_P2
2024/02/10 00:01:46;;;;;;;14.80;7.70;;;;;;;11.59;59.32;99973.91;109525;1252;60026;-69
2024/02/10 00:04:17;;;;;;;11.40;7.00;;;;;;;11.58;59.36;99970.44;109485;1251;60076;-71
2024/02/10 00:06:49;;;;;;;11.60;7.20;;;;;;;11.56;59.29;99964.30;109564;1251;73104;-72
2024/02/10 00:09:18;;;;;;;15.00;8.90;;;;;;;11.55;59.42;99955.20;109520;1251;72691;-72
2024/02/10 00:11:45;;;;;;;13.30;8.00;;;;;;;11.54;59.49;99958.38;109326;1251;72784;-69
2024/02/10 00:14:14;;;;;;;13.00;7.50;;;;;;;11.54;59.41;99962.09;109183;1251;60095;-68
2024/02/10 00:16:44;;;;;;;12.60;7.70;;;;;;;11.52;59.49;99958.79;109515;1251;60872;-68
2024/02/10 00:19:12;;;;;;;10.80;6.80;;;;;;;11.52;59.40;99967.59;109488;1251;72275;-68
2024/02/10 00:21:43;;;;;;;14.00;8.00;;;;;;;11.52;59.54;99968.65;109533;1251;71604;-70
2024/02/10 00:24:11;;;;;;;15.70;7.40;;;;;;;11.51;59.52;99966.03;109544;1251;72736;-66
2024/02/10 00:26:39;;;;;;;18.60;8.00;;;;;;;11.50;59.54;99962.73;109504;1256;60134;-67
2024/02/10 00:29:10;;;;;;;17.90;9.10;;;;;;;11.49;59.50;99964.50;109216;1251;58899;-67
2024/02/10 00:31:43;;;;;;;13.30;7.60;;;;;;;11.48;59.55;99968.55;109543;1256;73924;-68
2024/02/10 00:34:13;;;;;;;14.60;8.00;;;;;;;11.47;59.47;99971.93;109531;1251;72857;-65
2024/02/10 00:36:41;;;;;;;12.00;7.30;;;;;;;11.44;59.63;99970.93;109250;1256;72764;-66
2024/02/10 00:39:10;;;;;;;12.90;7.10;;;;;;;11.45;59.71;99964.08;109578;1251;58844;-64
2024/02/10 00:41:38;;;;;;;11.40;7.10;;;;;;;11.46;59.69;99957.73;109515;1251;59051;-63
2024/02/10 00:44:06;;;;;;;17.80;7.80;;;;;;;11.47;59.89;99951.36;109345;1251;72539;-63
2024/02/10 00:46:34;;;;;;;16.10;6.80;;;;;;;11.49;59.75;99946.95;109527;1251;71683;-63
2024/02/10 00:49:02;;;;;;;11.40;6.70;;;;;;;11.50;59.77;99952.00;109504;1252;71441;-63
2024/02/10 00:51:30;;;;;;;11.70;6.40;;;;;;;11.51;59.73;99956.90;109513;1254;60238;-63
2024/02/10 00:53:58;;;;;;;12.90;7.10;;;;;;;11.50;59.75;99961.83;109183;1251;60107;-67
2024/02/10 00:56:25;;;;;;;9.90;6.70;;;;;;;11.49;59.69;99958.01;109514;1251;73791;-67
2024/02/10 00:58:53;;;;;;;12.00;7.00;;;;;;;11.47;59.93;99955.23;109108;1260;73278;-70
2024/02/10 01:01:21;;;;;;;14.60;7.20;;;;;;;11.47;59.74;99954.52;109543;1253;71788;-70
2024/02/10 01:03:50;;;;;;;10.60;6.30;;;;;;;11.48;59.82;99957.17;109512;1251;60127;-67
2024/02/10 01:06:21;;;;;;;15.70;7.10;;;;;;;11.48;59.88;99961.71;109555;1251;58804;-67
2024/02/10 01:08:50;;;;;;;12.80;6.60;;;;;;;11.48;59.80;99959.62;109482;1251;73896;-68
2024/02/10 01:11:19;;;;;;;11.90;7.50;;;;;;;11.48;59.86;99954.52;109525;1251;71378;-67
2024/02/10 01:13:49;;;;;;;13.30;7.10;;;;;;;11.48;59.84;99951.88;109520;1251;72715;-68
2024/02/10 01:16:18;;;;;;;11.80;5.90;;;;;;;11.48;59.87;99949.41;109542;1254;58381;-65
2024/02/10 01:18:50;;;;;;;9.30;6.30;;;;;;;11.50;59.83;99939.02;109525;1251;58988;-64
2024/02/10 01:21:18;;;;;;;17.80;6.60;;;;;;;11.51;59.93;99934.96;109546;1250;72657;-65
2024/02/10 01:23:48;;;;;;;15.10;6.80;;;;;;;11.50;59.86;99928.45;109567;1251;72919;-66
2024/02/10 01:26:17;;;;;;;10.20;5.80;;;;;;;11.49;59.84;99921.81;109538;1251;73125;-68
2024/02/10 01:28:47;;;;;;;12.60;5.70;;;;;;;11.47;59.93;99920.63;109552;1251;59020;-70
2024/02/10 01:31:15;;;;;;;8.50;5.70;;;;;;;11.45;60.02;99916.11;109527;1251;60308;-69
2024/02/10 01:33:44;;;;;;;11.00;5.70;;;;;;;11.43;59.96;99916.16;109517;1251;73907;-70
2024/02/10 01:36:13;;;;;;;10.10;5.50;;;;;;;11.41;60.12;99911.82;109249;1251;70576;-65
2024/02/10 01:38:44;;;;;;;11.60;5.90;;;;;;;11.39;60.06;99912.58;109344;1252;72394;-64
2024/02/10 01:41:13;;;;;;;14.30;4.90;;;;;;;11.37;60.06;99915.62;109499;1251;59034;-66
2024/02/10 01:43:43;;;;;;;12.30;5.50;;;;;;;11.36;60.13;99920.56;109545;1251;60103;-66
2024/02/10 01:46:14;;;;;;;11.70;5.90;;;;;;;11.36;60.15;99911.95;109531;1251;72633;-65
2024/02/10 01:48:42;;;;;;;12.00;6.20;;;;;;;11.35;60.22;99911.80;109544;1251;71429;-66
2024/02/10 01:51:14;;;;;;;9.00;5.10;;;;;;;11.33;60.21;99917.13;109225;1257;72718;-65
2024/02/10 01:53:43;;;;;;;;;;;;;;;11.33;60.27;99917.14;109584;1254;58834;-66
2024/02/10 01:56:11;;;;;;;12.10;5.70;;;;;;;11.33;60.28;99922.58;109521;1251;59894;-65
2024/02/10 01:58:40;;;;;;;12.80;5.60;;;;;;;11.32;60.29;99923.81;109352;1251;72651;-65
2024/02/10 02:01:10;;;;;;;11.90;5.60;;;;;;;11.32;60.23;99916.81;109311;1251;71692;-66
2024/02/10 02:03:43;;;;;;;13.20;5.70;;;;;;;11.32;60.30;99911.54;109538;1251;72732;-67
2024/02/10 02:06:17;;;;;;;16.80;6.20;;;;;;;11.32;60.29;99920.48;109351;1251;60037;-71
2024/02/10 02:08:49;;;;;;;12.30;5.30;;;;;;;11.33;60.30;99925.91;109511;1251;60050;-66
2024/02/10 02:11:20;;;;;;;14.10;6.00;;;;;;;11.34;60.22;99923.24;109578;1251;72914;-65
2024/02/10 02:13:49;;;;;;;11.90;5.20;;;;;;;11.34;60.17;99919.91;109539;1251;71628;-65
2024/02/10 02:16:17;;;;;;;11.30;5.30;;;;;;;11.34;60.24;99921.31;109557;1255;70789;-64
2024/02/10 02:18:45;;;;;;;16.00;6.40;;;;;;;11.34;60.39;99922.39;109220;1251;58848;-63
2024/02/10 02:21:13;;;;;;;10.50;5.60;;;;;;;11.35;60.25;99925.51;109379;1251;60090;-65
2024/02/10 02:23:40;;;;;;;13.10;5.50;;;;;;;11.35;60.34;99922.52;109589;1251;73907;-66
2024/02/10 02:26:10;;;;;;;11.40;6.00;;;;;;;11.36;60.25;99922.33;109362;1259;72813;-65
2024/02/10 02:28:38;;;;;;;11.60;5.20;;;;;;;11.35;60.13;99922.85;109553;1250;72705;-65
2024/02/10 02:31:05;;;;;;;12.80;5.50;;;;;;;11.36;60.21;99921.63;109526;1251;58863;-66
2024/02/10 02:33:36;;;;;;;10.10;5.00;;;;;;;11.37;60.21;99921.05;109509;1251;58717;-66
2024/02/10 02:36:07;;;;;;;8.40;5.60;;;;;;;11.39;60.18;99918.92;109410;1251;72796;-66
2024/02/10 02:38:36;;;;;;;12.30;5.50;;;;;;;11.39;59.99;99911.35;109579;1251;72672;-67
2024/02/10 02:41:04;;;;;;;12.30;5.70;;;;;;;11.40;60.08;99913.61;109537;1251;72738;-63
2024/02/10 02:43:36;;;;;;;12.30;5.90;;;;;;;11.40;60.04;99921.32;109341;1251;58877;-65
2024/02/10 02:46:06;;;;;;;13.80;6.10;;;;;;;11.42;60.03;99925.66;109512;1251;58900;-63
2024/02/10 02:48:36;;;;;;;10.90;4.90;;;;;;;11.44;59.97;99926.33;109525;1250;72623;-65
2024/02/10 02:51:04;;;;;;;12.20;5.60;;;;;;;11.44;59.85;99925.80;109546;1251;71905;-66
2024/02/10 02:53:32;;;;;;;11.10;4.90;;;;;;;11.45;59.91;99925.25;109149;1254;71456;-70
2024/02/10 02:56:00;;;;;;;8.60;5.20;;;;;;;11.47;59.93;99927.68;109153;1253;58836;-67
2024/02/10 02:58:28;;;;;;;8.60;5.00;;;;;;;11.48;59.97;99928.89;109344;1253;58816;-67
2024/02/10 03:00:58;;;;;;;14.90;5.60;;;;;;;11.48;59.74;99931.69;109470;1253;73906;-71
2024/02/10 03:03:26;;;;;;;10.40;5.00;;;;;;;11.47;59.89;99932.05;109355;1254;72888;-70
2024/02/10 03:05:57;;;;;;;12.80;5.20;;;;;;;11.46;59.87;99928.41;109082;1254;72725;-69
2024/02/10 03:08:26;;;;;;;15.60;6.40;;;;;;;11.44;59.83;99930.38;109376;1253;60220;-69
2024/02/10 03:10:54;;;;;;;12.10;5.40;;;;;;;11.41;59.89;99933.95;109455;1254;58872;-70
2024/02/10 03:13:29;;;;;;;13.50;5.20;;;;;;;11.39;59.81;99933.48;109470;1253;73899;-68
2024/02/10 03:16:00;;;;;;;12.60;5.70;;;;;;;11.38;59.86;99936.66;109438;1254;73062;-68
2024/02/10 03:18:28;;;;;;;16.90;5.60;;;;;;;11.36;59.83;99935.66;109262;1253;72661;-69
2024/02/10 03:20:58;;;;;;;12.40;5.40;;;;;;;11.34;59.90;99935.18;109480;1253;60236;-74
2024/02/10 03:23:27;;;;;;;12.90;5.50;;;;;;;11.32;59.94;99937.16;109502;1253;60242;-69
2024/02/10 03:25:59;;;;;;;9.00;5.30;;;;;;;11.31;60.03;99935.79;108935;1253;73931;-69
2024/02/10 03:28:26;;;;;;;9.10;6.00;;;;;;;11.29;60.01;99939.33;109499;1254;73371;-68
2024/02/10 03:30:55;;;;;;;11.50;5.70;;;;;;;11.30;59.94;99947.05;109392;1254;70499;-70
2024/02/10 03:33:22;;;;;;;11.10;5.30;;;;;;;11.30;59.89;99944.60;109013;1252;59144;-71
2024/02/10 03:35:54;;;;;;;14.10;4.90;;;;;;;11.30;59.88;99943.54;109420;1254;60236;-72
2024/02/10 03:38:22;;;;;;;10.10;5.70;;;;;;;11.30;59.74;99943.36;109470;1253;72663;-69
2024/02/10 03:40:50;;;;;;;13.60;5.70;;;;;;;11.29;59.79;99936.88;109454;1253;71176;-73
2024/02/10 03:43:22;;;;;;;9.10;6.00;;;;;;;11.29;59.73;99932.51;109452;1252;71585;-71
2024/02/10 03:45:53;;;;;;;12.10;6.50;;;;;;;11.28;59.55;99939.02;109095;1253;60591;-69
2024/02/10 03:48:21;;;;;;;11.00;6.40;;;;;;;11.25;59.34;99936.44;108923;1254;58931;-74
2024/02/10 03:50:49;;;;;;;14.00;6.40;;;;;;;11.23;59.19;99932.80;109461;1253;73825;-71
2024/02/10 03:53:19;;;;;;;12.60;6.00;;;;;;;11.20;59.17;99932.90;109160;1254;72846;-67
2024/02/10 03:55:51;;;;;;;13.10;6.30;;;;;;;11.16;59.16;99926.65;109502;1253;73140;-67
2024/02/10 03:58:19;;;;;;;13.70;6.80;;;;;;;11.13;59.30;99921.11;109234;1253;58925;-67
2024/02/10 04:00:47;;;;;;;11.50;5.40;;;;;;;11.11;59.19;99925.02;109133;1252;59127;-64
2024/02/10 04:03:19;;;;;;;11.50;6.20;;;;;;;11.09;59.37;99923.30;109531;1253;71630;-71
2024/02/10 04:05:50;;;;;;;8.90;5.60;;;;;;;11.08;59.38;99923.48;109496;1253;72858;-69
2024/02/10 04:08:19;;;;;;;15.00;6.20;;;;;;;11.07;59.38;99919.84;109469;1253;72729;-70
2024/02/10 04:10:47;;;;;;;9.30;5.70;;;;;;;11.07;59.47;99921.96;109515;1253;60488;-72
2024/02/10 04:13:15;;;;;;;11.10;6.60;;;;;;;11.03;59.61;99926.93;109511;1254;60045;-75
2024/02/10 04:15:43;;;;;;;11.10;6.00;;;;;;;11.02;59.58;99928.73;109495;1253;72748;-69
2024/02/10 04:18:11;;;;;;;8.00;5.60;;;;;;;11.02;59.67;99932.94;109446;1253;72855;-70
2024/02/10 04:20:44;;;;;;;21.90;7.10;;;;;;;11.04;59.82;99936.25;109460;1253;71503;-69
2024/02/10 04:23:12;;;;;;;10.70;5.50;;;;;;;11.17;59.80;99941.73;108991;1256;60194;-66
2024/02/10 04:25:41;;;;;;;10.60;5.40;;;;;;;11.35;59.66;99940.94;109045;1256;58885;-69
2024/02/10 04:28:09;;;;;;;13.10;5.90;;;;;;;11.49;59.29;99946.77;108898;1256;73929;-70
2024/02/10 04:30:36;;;;;;;17.10;6.60;;;;;;;11.49;58.98;99952.73;109026;1256;72848;-68
2024/02/10 04:33:12;;;;;;;10.10;5.40;;;;;;;11.44;59.03;99957.94;109055;1256;71448;-68
2024/02/10 04:35:40;;;;;;;16.50;5.70;;;;;;;11.37;59.21;99961.80;108999;1256;58810;-68
2024/02/10 04:38:11;;;;;;;10.00;5.20;;;;;;;11.32;59.24;99962.81;109073;1256;61793;-69
2024/02/10 04:40:39;;;;;;;10.10;5.20;;;;;;;11.29;59.39;99969.38;109149;1256;73899;-66
2024/02/10 04:43:07;;;;;;;10.60;5.40;;;;;;;11.25;59.47;99974.20;108926;1255;71674;-68
2024/02/10 04:45:38;;;;;;;15.90;5.90;;;;;;;11.21;59.54;99981.84;109106;1256;72756;-70
2024/02/10 04:48:12;;;;;;;10.70;5.30;;;;;;;11.18;59.69;99983.30;109054;1256;60172;-72
2024/02/10 04:50:43;;;;;;;9.70;5.40;;;;;;;11.15;59.88;99979.52;109100;1255;60075;-65
2024/02/10 04:53:10;;;;;;;10.00;5.60;;;;;;;11.13;59.89;99980.42;108944;1255;73013;-64
2024/02/10 04:55:41;;;;;;;15.40;5.60;;;;;;;11.13;60.14;99984.98;109119;1254;71609;-64
2024/02/10 04:58:12;;;;;;;12.00;5.40;;;;;;;11.14;60.17;99987.26;109341;1253;71337;-64
2024/02/10 05:00:41;;;;;;;8.60;4.90;;;;;;;11.15;60.22;99991.63;109439;1253;60190;-63
2024/02/10 05:03:11;;;;;;;10.40;5.50;;;;;;;11.17;60.27;99991.77;109506;1253;60033;-65
2024/02/10 05:05:38;;;;;;;13.00;5.30;;;;;;;11.18;60.31;99988.56;109328;1253;72611;-64
2024/02/10 05:08:13;;;;;;;11.80;5.40;;;;;;;11.19;60.32;99992.06;109438;1253;71568;-62
2024/02/10 05:10:41;;;;;;;12.60;5.40;;;;;;;11.21;60.35;100005.02;109409;1253;71420;-63
2024/02/10 05:13:08;;;;;;;11.60;5.70;;;;;;;11.22;60.38;100010.26;109477;1253;60416;-63
2024/02/10 05:15:36;;;;;;;10.80;5.30;;;;;;;11.21;60.40;100020.64;109338;1253;58844;-62
2024/02/10 05:18:04;;;;;;;11.30;5.50;;;;;;;11.19;60.54;100021.38;108922;1253;73934;-62
2024/02/10 05:20:33;;;;;;;12.30;5.10;;;;;;;11.20;60.56;100015.04;109124;1253;73251;-63
2024/02/10 05:23:04;;;;;;;14.10;6.10;;;;;;;11.22;60.52;100016.05;108969;1253;71482;-64
2024/02/10 05:25:34;;;;;;;12.10;4.90;;;;;;;11.23;60.44;100015.66;109324;1253;60573;-69
2024/02/10 05:28:06;;;;;;;;;;;;;;;11.26;60.41;100019.46;109348;1253;58823;-71
2024/02/10 05:30:33;;;;;;;9.70;5.10;;;;;;;11.29;60.39;100022.56;109358;1253;73945;-75
2024/02/10 05:33:01;;;;;;;11.20;6.00;;;;;;;11.30;60.34;100028.52;109361;1253;72896;-69
2024/02/10 05:35:31;;;;;;;11.20;5.40;;;;;;;11.31;60.34;100028.85;109480;1253;71763;-69
2024/02/10 05:38:02;;;;;;;9.50;5.50;;;;;;;11.31;60.46;100030.60;109395;1253;59013;-70
2024/02/10 05:40:34;;;;;;;14.40;6.60;;;;;;;11.31;60.29;100034.64;109307;1253;60100;-69
2024/02/10 05:43:04;;;;;;;8.90;4.90;;;;;;;11.31;60.38;100040.43;109330;1253;74611;-62
2024/02/10 05:45:34;;;;;;;10.70;5.50;;;;;;;11.30;60.40;100037.11;109458;1252;73233;-62
2024/02/10 05:48:01;;;;;;;11.20;6.00;;;;;;;11.30;60.39;100043.43;109431;1253;72721;-61
2024/02/10 05:50:29;;;;;;;12.90;6.50;;;;;;;11.31;60.38;100045.70;109440;1253;58871;-63
2024/02/10 05:53:00;;;;;;;13.10;6.10;;;;;;;11.33;60.45;100052.32;109441;1253;60105;-62
2024/02/10 05:55:34;;;;;;;8.50;4.80;;;;;;;11.34;60.46;100048.62;109111;1253;73924;-66
2024/02/10 05:58:02;;;;;;;11.50;6.20;;;;;;;11.33;60.31;100044.78;109141;1253;72867;-67
2024/02/10 06:00:38;;;;;;;10.20;5.40;;;;;;;11.33;60.35;100048.46;109343;1252;73153;-67
2024/02/10 06:03:06;;;;;;;11.40;5.40;;;;;;;11.32;60.36;100046.02;109485;1252;60129;-59
2024/02/10 06:05:34;;;;;;;12.00;5.90;;;;;;;11.33;60.43;100042.50;109378;1253;60598;-61
2024/02/10 06:08:02;;;;;;;11.50;5.90;;;;;;;11.34;60.28;100046.86;109242;1252;72720;-60
2024/02/10 06:10:31;;;;;;;14.00;5.90;;;;;;;11.35;60.20;100048.41;109155;1252;74786;-62
2024/02/10 06:12:59;;;;;;;15.60;5.80;;;;;;;11.36;60.37;100046.63;109390;1253;71808;-61
2024/02/10 06:15:30;;;;;;;12.80;5.80;;;;;;;11.38;60.32;100042.90;109399;1253;60230;-63
2024/02/10 06:18:00;;;;;;;13.20;6.20;;;;;;;11.41;60.22;100044.74;109407;1252;58851;-62
2024/02/10 06:20:28;;;;;;;11.60;6.10;;;;;;;11.44;60.23;100047.50;109461;1253;73780;-61
2024/02/10 06:22:57;;;;;;;12.90;5.70;;;;;;;11.47;60.05;100044.46;109431;1253;72808;-58
2024/02/10 06:25:25;;;;;;;13.70;6.80;;;;;;;11.49;59.83;100042.65;109456;1253;72662;-55
2024/02/10 06:27:58;;;;;;;13.60;7.60;;;;;;;11.52;59.31;100042.05;109329;1253;58896;-59
2024/02/10 06:30:30;;;;;;;9.10;6.00;;;;;;;11.55;59.10;100042.14;109441;1252;60542;-58
2024/02/10 06:32:59;;;;;;;14.00;5.70;;;;;;;11.55;59.10;100041.62;109144;1252;72703;-58
2024/02/10 06:35:27;;;;;;;15.50;8.30;;;;;;;11.54;59.09;100041.81;109066;1254;72873;-58
2024/02/10 06:37:55;;;;;;;13.50;7.60;;;;;;;11.53;59.19;100044.48;109344;1253;72731;-57
2024/02/10 06:40:23;;;;;;;15.90;7.30;;;;;;;11.52;59.37;100045.38;109416;1253;60510;-57
2024/02/10 06:42:52;;;;;;;16.60;7.40;;;;;;;11.53;59.31;100040.11;109084;1253;58858;-58
2024/02/10 06:45:21;;;;;;;12.50;7.80;;;;;;;11.55;59.47;100041.64;109349;1253;72747;-59
2024/02/10 06:47:50;;;;;;;12.70;6.90;;;;;;;11.57;59.52;100048.97;109357;1253;71862;-58
2024/02/10 06:50:24;;;;;;;19.30;8.50;;;;;;;11.60;59.68;100051.88;109358;1253;71794;-57
2024/02/10 06:52:53;;;;;;;14.20;8.00;;;;;;;11.64;59.99;100050.90;109307;1253;60157;-57
2024/02/10 06:55:23;;;;;;;11.70;6.50;;;;;;;11.68;60.04;100043.80;109215;1253;60113;-58
2024/02/10 06:57:52;;;;;;;14.20;7.60;;;;;;;11.69;60.17;100050.43;109346;1253;74364;-58
2024/02/10 07:00:21;;;;;;;19.80;13.80;;;;;;;11.72;60.14;100059.16;109341;1253;72835;-57
2024/02/10 07:02:49;;;;;;;17.40;9.20;;;;;;;11.72;60.11;100073.90;109331;1253;72814;-58
2024/02/10 07:05:17;;;;;;;19.00;8.20;;;;;;;11.74;60.16;100069.98;109375;1253;58869;-57
2024/02/10 07:07:48;;;;;;;16.50;7.50;;;;;;;11.77;60.16;100070.46;109454;1252;60095;-57
2024/02/10 07:10:22;;;;;;;14.90;6.50;;;;;;;11.79;60.30;100070.93;109477;1253;76581;-57
2024/02/10 07:12:52;;;;;;;16.60;6.70;;;;;;;11.81;60.08;100063.52;109500;1252;72859;-56
2024/02/10 07:15:25;;;;;;;13.50;7.10;;;;;;;11.82;60.11;100066.30;109400;1252;71760;-57
2024/02/10 07:17:53;;;;;;;15.10;9.20;;;;;;;11.84;60.21;100065.90;109410;1253;60168;-60
2024/02/10 07:20:22;;;;;;;14.50;8.20;;;;;;;11.86;60.15;100065.14;109465;1252;58996;-61
2024/02/10 07:23:00;;;;;;;15.90;8.90;;;;;;;11.87;59.61;100067.60;109478;1253;73842;-62
2024/02/10 07:25:28;;;;;;;13.10;8.20;;;;;;;11.90;59.33;100064.70;109469;1253;72995;-61
2024/02/10 07:28:08;;;;;;;11.80;7.90;;;;;;;11.93;59.44;100066.58;109408;1253;71465;-61
2024/02/10 07:30:36;;;;;;;15.20;7.40;;;;;;;11.97;59.32;100064.20;109392;1253;60259;-62
2024/02/10 07:33:08;;;;;;;14.80;7.10;;;;;;;12.02;59.40;100067.61;109404;1253;58834;-61
2024/02/10 07:35:43;;;;;;;12.90;6.90;;;;;;;12.07;59.30;100065.73;109436;1253;73962;-60
2024/02/10 07:38:12;;;;;;;17.40;7.40;;;;;;;12.12;59.25;100070.51;109227;1252;71707;-64
2024/02/10 07:40:40;;;;;;;17.80;7.60;;;;;;;12.19;59.05;100076.14;109402;1253;72797;-61
2024/02/10 07:43:12;;;;;;;16.00;7.90;;;;;;;12.24;59.06;100084.45;109400;1253;62198;-61
2024/02/10 07:45:40;;;;;;;15.00;7.50;;;;;;;12.28;59.00;100086.46;109442;1253;58893;-61
2024/02/10 07:48:08;;;;;;;15.20;6.70;;;;;;;12.30;58.95;100086.06;109152;1253;72541;-66
2024/02/10 07:50:41;;;;;;;13.10;7.10;;;;;;;12.31;58.89;100092.52;109289;1253;71894;-63
2024/02/10 07:53:12;;;;;;;14.10;6.70;;;;;;;12.35;59.00;100096.31;109118;1253;71488;-64
2024/02/10 07:55:43;;;;;;;13.10;6.90;;;;;;;12.37;58.86;100096.96;109443;1253;58882;-59
2024/02/10 07:58:21;;;;;;;17.30;7.50;;;;;;;12.36;58.73;100095.59;109484;1252;60125;-59
2024/02/10 08:00:49;;;;;;;15.50;7.20;;;;;;;12.34;58.59;100096.67;109179;1253;72546;-60
2024/02/10 08:03:19;;;;;;;13.30;6.90;;;;;;;12.33;58.54;100098.81;109479;1252;72873;-61
2024/02/10 08:05:51;;;;;;;12.60;7.60;;;;;;;12.32;58.33;100091.27;109399;1253;72665;-62
2024/02/10 08:08:23;;;;;;;14.10;6.10;;;;;;;12.34;58.29;100091.23;109306;1252;60203;-65
2024/02/10 08:10:52;;;;;;;14.60;6.90;;;;;;;12.39;58.22;100100.23;109460;1252;60075;-70
2024/02/10 08:13:24;;;;;;;13.70;6.90;;;;;;;12.49;58.14;100104.21;108981;1253;73855;-68
2024/02/10 08:15:54;;;;;;;15.60;6.30;;;;;;;12.61;57.91;100105.30;109277;1254;72850;-71
2024/02/10 08:18:23;;;;;;;11.30;5.90;;;;;;;12.73;57.57;100103.39;109207;1252;71512;-66
2024/02/10 08:20:50;;;;;;;11.60;6.10;;;;;;;12.81;57.20;100102.47;109425;1253;58846;-73
2024/02/10 08:23:18;;;;;;;10.10;5.40;;;;;;;12.87;56.98;100106.72;109473;1252;58783;-66
2024/02/10 08:25:48;;;;;;;14.10;5.70;;;;;;;12.92;56.63;100108.68;109180;1253;71979;-66
2024/02/10 08:28:18;;;;;;;9.20;5.50;;;;;;;12.91;56.50;100100.27;109446;1253;72932;-62
2024/02/10 08:30:46;;;;;;;12.90;5.40;;;;;;;12.91;56.43;100105.03;109413;1253;71468;-66
2024/02/10 08:33:20;;;;;;;10.40;5.80;;;;;;;12.93;56.31;100111.31;109326;1253;58842;-63
2024/02/10 08:35:48;;;;;;;11.80;5.50;;;;;;;12.91;56.32;100114.35;109114;1253;61493;-65
2024/02/10 08:38:16;;;;;;;8.10;5.90;;;;;;;12.88;56.17;100108.98;109284;1253;72639;-65
2024/02/10 08:40:44;;;;;;;14.50;6.10;;;;;;;12.80;56.47;100115.34;109270;1253;72824;-58
2024/02/10 08:43:13;;;;;;;13.20;5.80;;;;;;;12.78;58.00;100116.64;109436;1253;71500;-60
2024/02/10 08:45:41;;;;;;;13.80;6.10;;;;;;;12.77;58.27;100125.65;109415;1253;60266;-59
2024/02/10 08:48:10;;;;;;;11.10;6.30;;;;;;;12.75;58.11;100127.80;109402;1253;58794;-60
2024/02/10 08:50:41;;;;;;;12.60;6.60;;;;;;;12.73;57.90;100129.45;109381;1252;73951;-60
2024/02/10 08:53:08;;;;;;;11.80;6.30;;;;;;;12.71;57.78;100121.23;109346;1253;71380;-60
2024/02/10 08:55:36;;;;;;;11.40;6.10;;;;;;;12.71;57.51;100123.88;109388;1252;72696;-59
2024/02/10 08:58:04;;;;;;;9.20;6.20;;;;;;;12.69;57.49;100126.39;109449;1251;60107;-58
2024/02/10 09:00:31;;;;;;;13.00;5.40;;;;;;;12.68;57.34;100125.70;109499;1251;58804;-59
2024/02/10 09:02:59;;;;;;;17.00;8.70;;;;;;;12.67;57.19;100124.48;109501;1253;73979;-57
2024/02/10 09:05:27;;;;;;;14.40;8.00;;;;;;;12.68;57.11;100127.81;109508;1252;71665;-59
2024/02/10 09:07:55;;;;;;;16.00;7.20;;;;;;;12.69;56.91;100132.90;109505;1251;71415;-61
2024/02/10 09:10:23;;;;;;;15.80;7.00;;;;;;;12.70;56.84;100136.38;109218;1251;60275;-58
2024/02/10 09:12:51;;;;;;;13.10;6.50;;;;;;;12.72;56.69;100140.21;109580;1251;60139;-59
2024/02/10 09:15:20;;;;;;;12.80;6.50;;;;;;;12.73;56.61;100147.23;109404;1251;72993;-58
2024/02/10 09:17:48;;;;;;;8.40;6.00;;;;;;;12.73;56.56;100156.73;109565;1251;71559;-59
2024/02/10 09:20:16;;;;;;;10.70;6.50;;;;;;;12.72;56.53;100157.27;109230;1252;71210;-58
2024/02/10 09:22:44;;;;;;;11.70;6.40;;;;;;;12.70;56.48;100153.45;109551;1251;60077;-60
2024/02/10 09:25:17;;;;;;;9.90;6.30;;;;;;;12.67;56.47;100142.79;109268;1252;59912;-58
2024/02/10 09:27:46;;;;;;;11.60;6.60;;;;;;;12.64;56.40;100141.63;109299;1251;74080;-60
2024/02/10 09:30:14;;;;;;;8.90;5.80;;;;;;;12.62;56.46;100143.45;109537;1251;72816;-65
2024/02/10 09:32:45;;;;;;;9.30;6.70;;;;;;;12.59;56.48;100151.80;109443;1251;71221;-61
2024/02/10 09:35:13;;;;;;;16.20;6.40;;;;;;;12.55;56.63;100141.70;109415;1251;58855;-61
2024/02/10 09:37:51;;;;;;;10.30;6.30;;;;;;;12.51;56.66;100148.30;109469;1252;59409;-60
2024/02/10 09:40:19;;;;;;;14.60;6.80;;;;;;;12.48;56.69;100158.23;109449;1251;74385;-59
2024/02/10 09:42:53;;;;;;;12.90;6.50;;;;;;;12.44;56.82;100155.88;109414;1253;73825;-61
2024/02/10 09:45:23;;;;;;;10.10;5.80;;;;;;;12.41;56.92;100152.98;109380;1253;71509;-58
2024/02/10 09:47:51;;;;;;;14.20;7.20;;;;;;;12.39;57.10;100150.00;109425;1253;58715;-58
2024/02/10 09:50:18;;;;;;;11.80;6.80;;;;;;;12.41;57.90;100149.45;109360;1251;58226;-58
2024/02/10 09:53:02;;;;;;;10.50;6.00;;;;;;;12.41;58.57;100145.39;109399;1252;72646;-56
2024/02/10 09:55:29;;;;;;;10.60;7.20;;;;;;;12.41;58.83;100138.54;109300;1253;72835;-58
2024/02/10 09:58:03;;;;;;;12.70;6.90;;;;;;;12.40;58.87;100139.27;109274;1253;72785;-61
2024/02/10 10:00:32;;;;;;;19.10;7.10;;;;;;;12.44;61.96;100140.58;109165;1254;60484;-55
2024/02/10 10:03:00;;;;;;;19.00;7.80;;;;;;;12.58;63.53;100138.44;108994;1253;59510;-55
2024/02/10 10:05:36;;;;;;;15.60;6.90;;;;;;;12.64;63.13;100137.94;109303;1254;73024;-57
2024/02/10 10:08:08;;;;;;;12.40;7.30;;;;;;;12.66;62.61;100139.65;109293;1252;72865;-55
2024/02/10 10:10:36;;;;;;;11.20;6.50;;;;;;;12.67;61.93;100137.17;109264;1252;72369;-56
2024/02/10 10:13:10;;;;;;;16.30;6.90;;;;;;;12.66;61.17;100138.59;109274;1253;60101;-56
2024/02/10 10:15:39;;;;;;;9.50;6.10;;;;;;;12.66;60.68;100136.46;108966;1253;60093;-56
2024/02/10 10:18:14;;;;;;;14.60;7.20;;;;;;;12.66;60.26;100132.62;109375;1253;71937;-57
2024/02/10 10:20:46;;;;;;;13.20;6.60;;;;;;;12.65;59.64;100128.07;108956;1254;72608;-57
2024/02/10 10:23:15;;;;;;;9.40;5.70;;;;;;;12.63;59.26;100118.27;109253;1252;72939;-56
2024/02/10 10:25:45;;;;;;;9.80;5.40;;;;;;;12.64;58.92;100112.80;109346;1253;59738;-55
2024/02/10 10:28:17;;;;;;;14.20;6.90;;;;;;;12.65;58.58;100113.81;108960;1252;58517;-56
2024/02/10 10:30:48;;;;;;;14.10;6.80;;;;;;;12.65;58.38;100117.67;109203;1253;74002;-56
2024/02/10 10:33:20;;;;;;;12.70;7.20;;;;;;;12.65;58.16;100119.27;108937;1253;72836;-56
2024/02/10 10:35:51;;;;;;;11.00;6.20;;;;;;;12.65;57.98;100129.29;109173;1253;72723;-56
2024/02/10 10:38:22;;;;;;;11.90;6.90;;;;;;;12.65;57.89;100121.91;108925;1254;58836;-56
2024/02/10 10:40:53;;;;;;;12.80;6.60;;;;;;;12.64;57.97;100116.13;109083;1254;59911;-55
2024/02/10 10:43:21;;;;;;;11.10;5.90;;;;;;;12.64;57.76;100111.73;109204;1253;72658;-57
2024/02/10 10:45:49;;;;;;;15.00;7.10;;;;;;;12.64;57.78;100110.83;108950;1253;72043;-57
2024/02/10 10:48:17;;;;;;;14.60;6.60;;;;;;;12.65;57.78;100101.34;109213;1253;72651;-56
2024/02/10 10:50:45;;;;;;;13.50;6.40;;;;;;;12.65;57.73;100096.22;109080;1253;60671;-56
2024/02/10 10:53:13;;;;;;;9.60;5.60;;;;;;;12.65;57.73;100093.92;109118;1253;60224;-59
2024/02/10 10:55:46;;;;;;;10.80;5.90;;;;;;;12.66;57.65;100092.31;109206;1252;73863;-58
2024/02/10 10:58:17;;;;;;;11.50;6.30;;;;;;;12.67;57.68;100090.89;109084;1253;73544;-58
2024/02/10 11:00:46;;;;;;;10.70;6.30;;;;;;;12.69;57.64;100086.77;109053;1254;72867;-56
2024/02/10 11:03:16;;;;;;;11.60;6.10;;;;;;;12.72;57.58;100079.69;108854;1253;60166;-56
2024/02/10 11:05:47;;;;;;;14.30;7.10;;;;;;;12.74;57.44;100075.20;108912;1254;58846;-56
2024/02/10 11:08:45;;;;;;;10.50;6.10;;;;;;;12.77;57.26;100072.65;108935;1253;73930;-56
2024/02/10 11:11:13;;;;;;;13.00;6.80;;;;;;;12.79;57.19;100059.56;108564;1259;283145;-59
2024/02/10 11:13:41;;;;;;;11.60;6.40;;;;;;;12.82;57.10;100056.31;108596;1259;71216;-58
2024/02/10 11:16:12;;;;;;;10.40;6.50;;;;;;;12.87;57.04;100061.14;108695;1259;60186;-60
2024/02/10 11:18:43;;;;;;;11.10;6.50;;;;;;;12.92;57.08;100064.67;108595;1259;59290;-58
2024/02/10 11:21:25;;;;;;;11.90;5.80;;;;;;;12.95;56.92;100058.79;108734;1259;74373;-60
2024/02/10 11:24:14;;;;;;;12.40;6.60;;;;;;;12.97;56.88;100064.51;108753;1258;70695;-60
2024/02/10 11:26:44;;;;;;;12.80;6.80;;;;;;;12.97;56.89;100067.67;108748;1258;72584;-60